sensor_id;sensor_type;location;lat;lon;timestamp;noise_LAeq;noise_LA_min;noise_LA_max;noise_LA01;noise_LA95
61816;Laerm;47745;49.010;8.380;2022-07-06T00:01:27;36.92;31.33;39.89;;
61816;Laerm;47745;49.010;8.380;2022-07-06T00:03:52;36.95;30.89;40.13;;
61816;Laerm;47745;49.010;8.380;2022-07-06T00:06:18;36.95;31.68;39.92;;
61816;Laerm;47745;49.010;8.380;2022-07-06T00:08:44;36.93;31.68;40.23;;
61816;Laerm;47745;49.010;8.380;2022-07-06T00:11:10;36.94;30.89;39.70;;
61816;Laerm;47745;49.010;8.380;2022-07-06T00:13:36;36.93;30.89;39.70;;
61816;Laerm;47745;49.010;8.380;2022-07-06T00:16:02;36.94;30.89;39.81;;
61816;Laerm;47745;49.010;8.380;2022-07-06T00:18:28;36.99;28.67;40.23;;
61816;Laerm;47745;49.010;8.380;2022-07-06T00:20:54;36.96;30.89;40.03;;
61816;Laerm;47745;49.010;8.380;2022-07-06T00:23:20;36.97;30.89;40.13;;
61816;Laerm;47745;49.010;8.380;2022-07-06T00:25:46;37.00;31.68;40.53;;
61816;Laerm;47745;49.010;8.380;2022-07-06T00:28:12;37.02;31.68;40.03;;
61816;Laerm;47745;49.010;8.380;2022-07-06T00:30:37;37.03;31.68;40.23;;
61816;Laerm;47745;49.010;8.380;2022-07-06T00:33:03;37.01;31.68;39.92;;
61816;Laerm;47745;49.010;8.380;2022-07-06T00:35:29;37.06;30.89;39.92;;
61816;Laerm;47745;49.010;8.380;2022-07-06T00:37:55;37.02;31.33;40.03;;
61816;Laerm;47745;49.010;8.380;2022-07-06T00:40:21;37.07;30.89;40.53;;
61816;Laerm;47745;49.010;8.380;2022-07-06T00:42:47;37.12;30.89;39.81;;
61816;Laerm;47745;49.010;8.380;2022-07-06T00:45:14;37.19;30.89;40.23;;
61816;Laerm;47745;49.010;8.380;2022-07-06T00:47:40;37.20;31.68;40.13;;
61816;Laerm;47745;49.010;8.380;2022-07-06T00:50:07;37.19;30.89;40.33;;
61816;Laerm;47745;49.010;8.380;2022-07-06T00:52:47;37.20;30.89;40.23;;
61816;Laerm;47745;49.010;8.380;2022-07-06T00:55:14;37.20;29.92;40.43;;
61816;Laerm;47745;49.010;8.380;2022-07-06T00:57:41;37.23;30.89;40.43;;
61816;Laerm;47745;49.010;8.380;2022-07-06T01:00:08;37.19;31.68;40.23;;
61816;Laerm;47745;49.010;8.380;2022-07-06T01:02:35;37.13;30.89;40.03;;
61816;Laerm;47745;49.010;8.380;2022-07-06T01:05:02;37.10;31.68;39.81;;
61816;Laerm;47745;49.010;8.380;2022-07-06T01:07:28;37.19;31.68;40.13;;
61816;Laerm;47745;49.010;8.380;2022-07-06T01:09:54;37.24;29.92;40.03;;
61816;Laerm;47745;49.010;8.380;2022-07-06T01:12:20;37.23;31.68;40.62;;
61816;Laerm;47745;49.010;8.380;2022-07-06T01:14:46;37.28;32.35;41.30;;
61816;Laerm;47745;49.010;8.380;2022-07-06T01:17:13;37.22;30.89;40.13;;
61816;Laerm;47745;49.010;8.380;2022-07-06T01:19:39;37.23;31.68;41.14;;
61816;Laerm;47745;49.010;8.380;2022-07-06T01:22:05;37.31;32.35;40.23;;
61816;Laerm;47745;49.010;8.380;2022-07-06T01:24:31;37.29;30.89;40.03;;
61816;Laerm;47745;49.010;8.380;2022-07-06T01:26:57;37.32;30.89;40.33;;
61816;Laerm;47745;49.010;8.380;2022-07-06T01:29:23;37.23;32.35;40.33;;
61816;Laerm;47745;49.010;8.380;2022-07-06T01:31:49;37.24;32.35;40.18;;
61816;Laerm;47745;49.010;8.380;2022-07-06T01:34:18;37.28;31.68;40.13;;
61816;Laerm;47745;49.010;8.380;2022-07-06T01:36:44;37.33;32.35;40.53;;
61816;Laerm;47745;49.010;8.380;2022-07-06T01:39:10;37.38;32.35;40.71;;
61816;Laerm;47745;49.010;8.380;2022-07-06T01:41:37;37.38;30.89;40.33;;
61816;Laerm;47745;49.010;8.380;2022-07-06T01:44:03;37.42;32.35;40.23;;
61816;Laerm;47745;49.010;8.380;2022-07-06T01:46:29;37.41;31.68;40.33;;
61816;Laerm;47745;49.010;8.380;2022-07-06T01:48:55;37.33;32.93;40.13;;
61816;Laerm;47745;49.010;8.380;2022-07-06T01:51:21;37.33;31.68;40.13;;
61816;Laerm;47745;49.010;8.380;2022-07-06T01:53:48;37.34;31.68;40.23;;
61816;Laerm;47745;49.010;8.380;2022-07-06T01:56:14;37.26;30.89;39.92;;
61816;Laerm;47745;49.010;8.380;2022-07-06T01:58:40;37.32;31.33;40.43;;
61816;Laerm;47745;49.010;8.380;2022-07-06T02:01:09;37.37;30.89;40.43;;
61816;Laerm;47745;49.010;8.380;2022-07-06T02:03:35;37.29;32.93;40.33;;
61816;Laerm;47745;49.010;8.380;2022-07-06T02:06:01;37.25;31.68;40.13;;
61816;Laerm;47745;49.010;8.380;2022-07-06T02:08:27;37.34;32.35;40.62;;
61816;Laerm;47745;49.010;8.380;2022-07-06T02:10:53;37.37;32.93;40.71;;
61816;Laerm;47745;49.010;8.380;2022-07-06T02:13:19;37.49;31.68;40.62;;
61816;Laerm;47745;49.010;8.380;2022-07-06T02:15:45;37.38;31.68;40.33;;
61816;Laerm;47745;49.010;8.380;2022-07-06T02:18:10;37.43;32.35;40.23;;
61816;Laerm;47745;49.010;8.380;2022-07-06T02:20:36;37.33;31.68;40.23;;
61816;Laerm;47745;49.010;8.380;2022-07-06T02:23:02;37.34;30.89;40.23;;
61816;Laerm;47745;49.010;8.380;2022-07-06T02:25:28;37.37;32.93;40.33;;
61816;Laerm;47745;49.010;8.380;2022-07-06T02:27:54;37.34;32.35;40.03;;
61816;Laerm;47745;49.010;8.380;2022-07-06T02:30:20;37.37;32.35;40.23;;
61816;Laerm;47745;49.010;8.380;2022-07-06T02:32:47;37.39;30.89;40.53;;
61816;Laerm;47745;49.010;8.380;2022-07-06T02:35:13;37.47;32.35;40.71;;
61816;Laerm;47745;49.010;8.380;2022-07-06T02:37:38;37.48;31.68;40.71;;
61816;Laerm;47745;49.010;8.380;2022-07-06T02:40:05;37.37;32.35;40.43;;
61816;Laerm;47745;49.010;8.380;2022-07-06T02:42:31;37.45;32.35;40.36;;
61816;Laerm;47745;49.010;8.380;2022-07-06T02:44:56;37.46;31.33;40.43;;
61816;Laerm;47745;49.010;8.380;2022-07-06T02:47:22;37.37;32.93;40.43;;
61816;Laerm;47745;49.010;8.380;2022-07-06T02:49:48;37.46;30.89;40.43;;
61816;Laerm;47745;49.010;8.380;2022-07-06T02:52:14;37.42;32.93;40.03;;
61816;Laerm;47745;49.010;8.380;2022-07-06T02:54:40;37.41;32.35;40.54;;
61816;Laerm;47745;49.010;8.380;2022-07-06T02:57:06;37.35;32.93;40.43;;
61816;Laerm;47745;49.010;8.380;2022-07-06T02:59:31;37.49;32.35;41.68;;
61816;Laerm;47745;49.010;8.380;2022-07-06T03:01:57;37.46;32.93;40.43;;
61816;Laerm;47745;49.010;8.380;2022-07-06T03:04:23;37.41;32.35;40.33;;
61816;Laerm;47745;49.010;8.380;2022-07-06T03:06:49;37.50;32.93;40.80;;
61816;Laerm;47745;49.010;8.380;2022-07-06T03:09:15;37.42;32.35;41.38;;
61816;Laerm;47745;49.010;8.380;2022-07-06T03:11:41;37.48;32.35;40.62;;
61816;Laerm;47745;49.010;8.380;2022-07-06T03:14:06;37.45;31.68;40.43;;
61816;Laerm;47745;49.010;8.380;2022-07-06T03:16:32;37.46;32.35;40.43;;
61816;Laerm;47745;49.010;8.380;2022-07-06T03:18:58;37.44;32.93;40.23;;
61816;Laerm;47745;49.010;8.380;2022-07-06T03:21:24;37.44;30.89;40.53;;
61816;Laerm;47745;49.010;8.380;2022-07-06T03:23:50;37.41;31.68;40.13;;
61816;Laerm;47745;49.010;8.380;2022-07-06T03:26:16;37.44;32.93;40.23;;
61816;Laerm;47745;49.010;8.380;2022-07-06T03:28:42;37.49;33.44;40.98;;
61816;Laerm;47745;49.010;8.380;2022-07-06T03:31:08;37.44;32.35;40.33;;
61816;Laerm;47745;49.010;8.380;2022-07-06T03:33:33;37.41;32.35;40.13;;
61816;Laerm;47745;49.010;8.380;2022-07-06T03:35:59;37.41;31.68;40.62;;
61816;Laerm;47745;49.010;8.380;2022-07-06T03:38:28;37.42;32.93;40.33;;
61816;Laerm;47745;49.010;8.380;2022-07-06T03:40:54;37.37;32.93;40.43;;
61816;Laerm;47745;49.010;8.380;2022-07-06T03:43:20;37.40;31.68;40.33;;
61816;Laerm;47745;49.010;8.380;2022-07-06T03:45:46;37.36;31.68;40.33;;
61816;Laerm;47745;49.010;8.380;2022-07-06T03:48:11;37.44;30.89;40.43;;
61816;Laerm;47745;49.010;8.380;2022-07-06T03:50:37;37.42;32.35;40.53;;
61816;Laerm;47745;49.010;8.380;2022-07-06T03:53:03;37.43;32.35;40.33;;
61816;Laerm;47745;49.010;8.380;2022-07-06T03:55:29;37.36;32.35;40.23;;
61816;Laerm;47745;49.010;8.380;2022-07-06T03:57:55;37.39;32.93;40.03;;
61816;Laerm;47745;49.010;8.380;2022-07-06T04:00:21;37.40;32.93;40.33;;
61816;Laerm;47745;49.010;8.380;2022-07-06T04:02:47;37.37;32.35;40.13;;
61816;Laerm;47745;49.010;8.380;2022-07-06T04:05:13;37.36;32.93;40.03;;
61816;Laerm;47745;49.010;8.380;2022-07-06T04:07:39;37.37;32.35;40.03;;
61816;Laerm;47745;49.010;8.380;2022-07-06T04:10:04;37.32;32.93;40.33;;
61816;Laerm;47745;49.010;8.380;2022-07-06T04:12:31;37.36;31.68;40.23;;
61816;Laerm;47745;49.010;8.380;2022-07-06T04:14:57;37.45;32.35;40.53;;
61816;Laerm;47745;49.010;8.380;2022-07-06T04:17:23;37.38;32.93;40.33;;
61816;Laerm;47745;49.010;8.380;2022-07-06T04:20:08;37.36;31.68;40.43;;
61816;Laerm;47745;49.010;8.380;2022-07-06T04:22:38;37.36;32.35;39.92;;
61816;Laerm;47745;49.010;8.380;2022-07-06T04:25:04;37.35;32.35;39.92;;
61816;Laerm;47745;49.010;8.380;2022-07-06T04:27:30;37.32;29.92;40.03;;
61816;Laerm;47745;49.010;8.380;2022-07-06T04:29:55;37.36;32.93;40.23;;
61816;Laerm;47745;49.010;8.380;2022-07-06T04:32:24;37.37;32.35;40.23;;
61816;Laerm;47745;49.010;8.380;2022-07-06T04:34:50;37.32;32.35;40.62;;
61816;Laerm;47745;49.010;8.380;2022-07-06T04:37:15;37.39;32.35;40.03;;
61816;Laerm;47745;49.010;8.380;2022-07-06T04:39:41;37.37;32.93;40.36;;
61816;Laerm;47745;49.010;8.380;2022-07-06T04:42:07;37.35;31.68;40.43;;
61816;Laerm;47745;49.010;8.380;2022-07-06T04:44:34;37.32;31.68;40.03;;
61816;Laerm;47745;49.010;8.380;2022-07-06T04:46:59;37.35;32.00;40.33;;
61816;Laerm;47745;49.010;8.380;2022-07-06T04:49:25;37.35;32.35;40.33;;
61816;Laerm;47745;49.010;8.380;2022-07-06T04:51:51;37.41;32.35;40.23;;
61816;Laerm;47745;49.010;8.380;2022-07-06T04:54:17;37.35;32.93;39.92;;
61816;Laerm;47745;49.010;8.380;2022-07-06T04:56:43;37.34;32.35;40.33;;
61816;Laerm;47745;49.010;8.380;2022-07-06T04:59:09;37.35;30.89;40.33;;
61816;Laerm;47745;49.010;8.380;2022-07-06T05:01:43;37.35;33.44;40.23;;
61816;Laerm;47745;49.010;8.380;2022-07-06T05:04:09;37.34;30.89;40.27;;
61816;Laerm;47745;49.010;8.380;2022-07-06T05:06:35;37.31;32.35;40.53;;
61816;Laerm;47745;49.010;8.380;2022-07-06T05:09:01;37.32;32.93;40.33;;
61816;Laerm;47745;49.010;8.380;2022-07-06T05:11:27;37.35;32.35;40.23;;
61816;Laerm;47745;49.010;8.380;2022-07-06T05:13:53;37.34;31.68;40.13;;
61816;Laerm;47745;49.010;8.380;2022-07-06T05:16:20;37.37;32.35;40.71;;
61816;Laerm;47745;49.010;8.380;2022-07-06T05:18:46;37.33;32.35;40.33;;
61816;Laerm;47745;49.010;8.380;2022-07-06T05:21:12;37.39;32.93;40.23;;
61816;Laerm;47745;49.010;8.380;2022-07-06T05:23:38;37.43;32.35;40.62;;
61816;Laerm;47745;49.010;8.380;2022-07-06T05:26:04;37.60;33.44;40.62;;
61816;Laerm;47745;49.010;8.380;2022-07-06T05:28:30;37.46;32.93;40.43;;
61816;Laerm;47745;49.010;8.380;2022-07-06T05:30:55;37.40;31.68;40.53;;
61816;Laerm;47745;49.010;8.380;2022-07-06T05:33:21;37.42;32.93;40.71;;
61816;Laerm;47745;49.010;8.380;2022-07-06T05:35:47;37.38;33.44;40.13;;
61816;Laerm;47745;49.010;8.380;2022-07-06T05:38:13;37.38;32.35;40.62;;
61816;Laerm;47745;49.010;8.380;2022-07-06T05:40:39;37.30;32.35;40.33;;
61816;Laerm;47745;49.010;8.380;2022-07-06T05:43:05;37.30;32.93;40.13;;
61816;Laerm;47745;49.010;8.380;2022-07-06T05:45:31;37.27;32.35;40.62;;
61816;Laerm;47745;49.010;8.380;2022-07-06T05:47:56;37.31;32.35;40.62;;
61816;Laerm;47745;49.010;8.380;2022-07-06T05:50:41;37.33;31.68;40.23;;
61816;Laerm;47745;49.010;8.380;2022-07-06T05:53:07;37.30;30.89;40.62;;
61816;Laerm;47745;49.010;8.380;2022-07-06T05:55:33;37.31;31.68;40.23;;
61816;Laerm;47745;49.010;8.380;2022-07-06T05:57:59;37.33;32.35;40.71;;
61816;Laerm;47745;49.010;8.380;2022-07-06T06:00:25;37.33;32.35;39.92;;
61816;Laerm;47745;49.010;8.380;2022-07-06T06:02:51;37.31;32.35;40.33;;
61816;Laerm;47745;49.010;8.380;2022-07-06T06:05:17;37.41;30.89;40.33;;
61816;Laerm;47745;49.010;8.380;2022-07-06T06:07:44;37.41;31.68;40.13;;
61816;Laerm;47745;49.010;8.380;2022-07-06T06:10:14;37.41;32.35;40.62;;
61816;Laerm;47745;49.010;8.380;2022-07-06T06:12:40;37.38;32.93;40.80;;
61816;Laerm;47745;49.010;8.380;2022-07-06T06:15:07;37.46;31.68;40.43;;
61816;Laerm;47745;49.010;8.380;2022-07-06T06:17:33;37.37;30.89;40.13;;
61816;Laerm;47745;49.010;8.380;2022-07-06T06:19:59;37.34;31.68;40.03;;
61816;Laerm;47745;49.010;8.380;2022-07-06T06:22:25;37.28;31.68;40.13;;
61816;Laerm;47745;49.010;8.380;2022-07-06T06:24:51;37.39;32.35;40.23;;
61816;Laerm;47745;49.010;8.380;2022-07-06T06:27:17;37.40;32.35;40.80;;
61816;Laerm;47745;49.010;8.380;2022-07-06T06:29:43;37.40;31.68;40.13;;
61816;Laerm;47745;49.010;8.380;2022-07-06T06:32:10;37.30;30.89;40.53;;
61816;Laerm;47745;49.010;8.380;2022-07-06T06:34:36;37.30;30.89;40.33;;
61816;Laerm;47745;49.010;8.380;2022-07-06T06:37:02;37.29;32.35;40.03;;
61816;Laerm;47745;49.010;8.380;2022-07-06T06:39:28;37.48;31.68;40.13;;
61816;Laerm;47745;49.010;8.380;2022-07-06T06:41:54;37.45;32.93;40.23;;
61816;Laerm;47745;49.010;8.380;2022-07-06T06:44:20;37.39;30.89;40.43;;
61816;Laerm;47745;49.010;8.380;2022-07-06T06:46:51;37.40;33.44;40.03;;
61816;Laerm;47745;49.010;8.380;2022-07-06T06:49:20;37.37;30.89;40.13;;
61816;Laerm;47745;49.010;8.380;2022-07-06T06:51:46;37.42;31.68;40.33;;
61816;Laerm;47745;49.010;8.380;2022-07-06T06:54:12;37.34;31.68;40.08;;
61816;Laerm;47745;49.010;8.380;2022-07-06T06:56:38;37.35;31.68;40.33;;
61816;Laerm;47745;49.010;8.380;2022-07-06T06:59:03;37.41;32.35;40.33;;
61816;Laerm;47745;49.010;8.380;2022-07-06T07:01:29;37.38;31.68;40.03;;
61816;Laerm;47745;49.010;8.380;2022-07-06T07:03:55;37.38;30.89;40.23;;
61816;Laerm;47745;49.010;8.380;2022-07-06T07:06:21;37.28;32.35;40.53;;
61816;Laerm;47745;49.010;8.380;2022-07-06T07:08:47;37.21;31.68;40.13;;
61816;Laerm;47745;49.010;8.380;2022-07-06T07:11:13;37.24;32.35;40.03;;
61816;Laerm;47745;49.010;8.380;2022-07-06T07:13:39;37.22;31.68;40.33;;
61816;Laerm;47745;49.010;8.380;2022-07-06T07:16:05;37.24;31.68;40.18;;
61816;Laerm;47745;49.010;8.380;2022-07-06T07:18:31;37.26;31.68;40.33;;
61816;Laerm;47745;49.010;8.380;2022-07-06T07:20:57;37.25;31.68;40.43;;
61816;Laerm;47745;49.010;8.380;2022-07-06T07:23:23;37.34;30.89;40.71;;
61816;Laerm;47745;49.010;8.380;2022-07-06T07:25:49;37.35;31.68;40.54;;
61816;Laerm;47745;49.010;8.380;2022-07-06T07:28:15;37.38;31.68;40.43;;
61816;Laerm;47745;49.010;8.380;2022-07-06T07:30:41;37.33;31.68;40.13;;
61816;Laerm;47745;49.010;8.380;2022-07-06T07:33:07;37.36;31.68;40.33;;
61816;Laerm;47745;49.010;8.380;2022-07-06T07:35:33;37.34;30.89;40.23;;
61816;Laerm;47745;49.010;8.380;2022-07-06T07:37:58;37.45;32.35;40.80;;
61816;Laerm;47745;49.010;8.380;2022-07-06T07:40:24;37.34;31.68;40.53;;
61816;Laerm;47745;49.010;8.380;2022-07-06T07:42:50;37.47;32.35;40.53;;
61816;Laerm;47745;49.010;8.380;2022-07-06T07:45:16;37.45;32.35;40.33;;
61816;Laerm;47745;49.010;8.380;2022-07-06T07:47:42;37.40;31.68;40.33;;
61816;Laerm;47745;49.010;8.380;2022-07-06T07:50:08;37.36;30.89;40.53;;
61816;Laerm;47745;49.010;8.380;2022-07-06T07:52:34;37.37;31.68;40.43;;
61816;Laerm;47745;49.010;8.380;2022-07-06T07:55:00;37.30;32.35;40.23;;
61816;Laerm;47745;49.010;8.380;2022-07-06T07:57:26;37.22;31.68;40.33;;
61816;Laerm;47745;49.010;8.380;2022-07-06T07:59:52;37.29;31.68;40.33;;
61816;Laerm;47745;49.010;8.380;2022-07-06T08:02:18;37.26;32.35;40.23;;
61816;Laerm;47745;49.010;8.380;2022-07-06T08:04:44;37.36;30.89;40.18;;
61816;Laerm;47745;49.010;8.380;2022-07-06T08:07:09;37.33;29.92;40.43;;
61816;Laerm;47745;49.010;8.380;2022-07-06T08:09:35;37.28;32.35;40.23;;
61816;Laerm;47745;49.010;8.380;2022-07-06T08:12:01;37.19;31.68;40.33;;
61816;Laerm;47745;49.010;8.380;2022-07-06T08:14:27;37.12;30.89;39.81;;
61816;Laerm;47745;49.010;8.380;2022-07-06T08:16:53;37.11;31.33;39.92;;
61816;Laerm;47745;49.010;8.380;2022-07-06T08:19:18;37.18;31.68;40.53;;
61816;Laerm;47745;49.010;8.380;2022-07-06T08:21:44;37.07;32.35;40.03;;
61816;Laerm;47745;49.010;8.380;2022-07-06T08:24:10;37.13;30.89;40.43;;
61816;Laerm;47745;49.010;8.380;2022-07-06T08:26:36;37.04;31.68;39.81;;
61816;Laerm;47745;49.010;8.380;2022-07-06T08:29:02;37.06;31.68;40.23;;
61816;Laerm;47745;49.010;8.380;2022-07-06T08:31:28;37.12;30.89;39.92;;
61816;Laerm;47745;49.010;8.380;2022-07-06T08:33:54;37.09;30.89;40.13;;
61816;Laerm;47745;49.010;8.380;2022-07-06T08:36:21;37.16;31.68;40.03;;
61816;Laerm;47745;49.010;8.380;2022-07-06T08:38:47;37.21;30.89;40.43;;
61816;Laerm;47745;49.010;8.380;2022-07-06T08:41:14;37.15;28.67;40.13;;
61816;Laerm;47745;49.010;8.380;2022-07-06T08:43:41;37.13;31.68;40.43;;
61816;Laerm;47745;49.010;8.380;2022-07-06T08:46:07;37.14;30.89;40.03;;
61816;Laerm;47745;49.010;8.380;2022-07-06T08:48:35;37.11;31.33;40.33;;
61816;Laerm;47745;49.010;8.380;2022-07-06T08:51:02;37.16;31.68;40.13;;
61816;Laerm;47745;49.010;8.380;2022-07-06T08:53:28;37.06;29.92;40.03;;
61816;Laerm;47745;49.010;8.380;2022-07-06T08:55:54;37.07;31.68;40.03;;
61816;Laerm;47745;49.010;8.380;2022-07-06T08:58:20;37.07;31.68;40.03;;
61816;Laerm;47745;49.010;8.380;2022-07-06T09:00:49;37.06;30.89;40.18;;
61816;Laerm;47745;49.010;8.380;2022-07-06T09:03:15;37.15;32.35;39.99;;
61816;Laerm;47745;49.010;8.380;2022-07-06T09:05:40;37.12;30.89;40.33;;
61816;Laerm;47745;49.010;8.380;2022-07-06T09:08:10;37.13;32.93;39.89;;
61816;Laerm;47745;49.010;8.380;2022-07-06T09:10:36;37.12;32.35;39.58;;
61816;Laerm;47745;49.010;8.380;2022-07-06T09:13:03;37.11;30.89;39.81;;
61816;Laerm;47745;49.010;8.380;2022-07-06T09:15:30;37.13;32.35;39.81;;
61816;Laerm;47745;49.010;8.380;2022-07-06T09:17:56;37.19;31.68;39.81;;
61816;Laerm;47745;49.010;8.380;2022-07-06T09:20:23;37.23;32.93;40.13;;
61816;Laerm;47745;49.010;8.380;2022-07-06T09:22:49;37.19;32.35;40.33;;
61816;Laerm;47745;49.010;8.380;2022-07-06T09:25:16;37.21;32.35;39.92;;
61816;Laerm;47745;49.010;8.380;2022-07-06T09:27:46;37.23;31.68;40.43;;
61816;Laerm;47745;49.010;8.380;2022-07-06T09:30:13;37.33;32.93;40.33;;
61816;Laerm;47745;49.010;8.380;2022-07-06T09:32:40;37.31;32.93;40.13;;
61816;Laerm;47745;49.010;8.380;2022-07-06T09:35:07;37.37;32.93;40.62;;
61816;Laerm;47745;49.010;8.380;2022-07-06T09:37:33;37.39;32.93;40.13;;
61816;Laerm;47745;49.010;8.380;2022-07-06T09:39:59;37.43;32.93;40.43;;
61816;Laerm;47745;49.010;8.380;2022-07-06T09:42:25;37.41;33.44;40.13;;
61816;Laerm;47745;49.010;8.380;2022-07-06T09:44:52;37.41;32.93;40.23;;
61816;Laerm;47745;49.010;8.380;2022-07-06T09:47:17;37.39;32.93;39.92;;
61816;Laerm;47745;49.010;8.380;2022-07-06T09:49:45;37.38;32.35;40.33;;
61816;Laerm;47745;49.010;8.380;2022-07-06T09:52:11;37.39;32.93;40.53;;
61816;Laerm;47745;49.010;8.380;2022-07-06T09:54:37;37.41;32.93;40.23;;
61816;Laerm;47745;49.010;8.380;2022-07-06T09:57:04;37.37;32.35;40.23;;
61816;Laerm;47745;49.010;8.380;2022-07-06T09:59:31;37.31;33.44;40.13;;
61816;Laerm;47745;49.010;8.380;2022-07-06T10:01:59;37.27;32.93;40.23;;
61816;Laerm;47745;49.010;8.380;2022-07-06T10:04:26;37.20;32.93;39.92;;
61816;Laerm;47745;49.010;8.380;2022-07-06T10:06:53;37.21;32.35;40.53;;
61816;Laerm;47745;49.010;8.380;2022-07-06T10:09:20;37.24;30.89;42.47;;
61816;Laerm;47745;49.010;8.380;2022-07-06T10:14:17;37.42;32.93;40.53;;
61816;Laerm;47745;49.010;8.380;2022-07-06T10:16:43;37.38;32.93;40.23;;
61816;Laerm;47745;49.010;8.380;2022-07-06T10:19:10;37.42;33.44;40.03;;
61816;Laerm;47745;49.010;8.380;2022-07-06T10:21:37;37.41;32.93;39.92;;
61816;Laerm;47745;49.010;8.380;2022-07-06T10:24:04;37.45;32.93;40.62;;
61816;Laerm;47745;49.010;8.380;2022-07-06T10:26:30;37.50;32.93;40.13;;
61816;Laerm;47745;49.010;8.380;2022-07-06T10:29:01;37.38;32.35;40.43;;
61816;Laerm;47745;49.010;8.380;2022-07-06T10:31:27;37.41;32.93;40.43;;
61816;Laerm;47745;49.010;8.380;2022-07-06T10:33:55;37.43;32.35;40.13;;
61816;Laerm;47745;49.010;8.380;2022-07-06T10:36:22;37.42;33.44;40.23;;
61816;Laerm;47745;49.010;8.380;2022-07-06T10:38:49;37.37;32.35;40.43;;
61816;Laerm;47745;49.010;8.380;2022-07-06T10:41:15;37.37;32.93;40.13;;
61816;Laerm;47745;49.010;8.380;2022-07-06T10:43:42;37.33;32.93;40.03;;
61816;Laerm;47745;49.010;8.380;2022-07-06T10:46:08;37.37;32.35;39.81;;
61816;Laerm;47745;49.010;8.380;2022-07-06T10:48:36;37.34;32.35;40.33;;
61816;Laerm;47745;49.010;8.380;2022-07-06T10:51:02;37.35;31.68;40.03;;
61816;Laerm;47745;49.010;8.380;2022-07-06T10:53:33;37.37;31.68;40.03;;
61816;Laerm;47745;49.010;8.380;2022-07-06T10:56:00;37.31;32.35;40.53;;
61816;Laerm;47745;49.010;8.380;2022-07-06T10:58:38;37.36;31.68;40.71;;
61816;Laerm;47745;49.010;8.380;2022-07-06T11:01:06;37.38;32.35;40.23;;
61816;Laerm;47745;49.010;8.380;2022-07-06T11:08:43;37.31;28.67;39.92;;
61816;Laerm;47745;49.010;8.380;2022-07-06T11:13:43;37.31;32.93;40.03;;
61816;Laerm;47745;49.010;8.380;2022-07-06T11:16:09;37.29;32.35;39.92;;
61816;Laerm;47745;49.010;8.380;2022-07-06T11:18:38;37.36;32.93;40.13;;
61816;Laerm;47745;49.010;8.380;2022-07-06T11:23:46;37.44;32.93;40.18;;
61816;Laerm;47745;49.010;8.380;2022-07-06T11:26:13;37.48;32.93;40.23;;
61816;Laerm;47745;49.010;8.380;2022-07-06T11:28:39;37.42;32.35;40.13;;
61816;Laerm;47745;49.010;8.380;2022-07-06T11:31:05;37.45;32.93;40.33;;
61816;Laerm;47745;49.010;8.380;2022-07-06T11:33:31;37.44;32.93;40.43;;
61816;Laerm;47745;49.010;8.380;2022-07-06T11:36:13;37.43;32.93;40.43;;
61816;Laerm;47745;49.010;8.380;2022-07-06T11:38:39;37.41;31.68;40.53;;
61816;Laerm;47745;49.010;8.380;2022-07-06T11:41:05;37.42;32.93;40.33;;
61816;Laerm;47745;49.010;8.380;2022-07-06T11:43:31;37.36;32.93;40.13;;
61816;Laerm;47745;49.010;8.380;2022-07-06T11:45:57;37.36;32.35;40.13;;
61816;Laerm;47745;49.010;8.380;2022-07-06T11:48:23;37.36;32.35;40.13;;
61816;Laerm;47745;49.010;8.380;2022-07-06T11:51:01;37.34;32.35;40.33;;
61816;Laerm;47745;49.010;8.380;2022-07-06T11:53:28;37.35;33.44;40.23;;
61816;Laerm;47745;49.010;8.380;2022-07-06T11:55:53;37.29;31.68;40.43;;
61816;Laerm;47745;49.010;8.380;2022-07-06T11:58:20;37.23;32.00;40.03;;
61816;Laerm;47745;49.010;8.380;2022-07-06T12:01:06;37.27;32.35;40.23;;
61816;Laerm;47745;49.010;8.380;2022-07-06T12:03:33;37.27;31.68;40.03;;
61816;Laerm;47745;49.010;8.380;2022-07-06T12:06:04;37.37;32.35;40.33;;
61816;Laerm;47745;49.010;8.380;2022-07-06T12:08:29;37.42;32.93;39.92;;
61816;Laerm;47745;49.010;8.380;2022-07-06T12:10:55;37.44;32.93;39.92;;
61816;Laerm;47745;49.010;8.380;2022-07-06T12:13:23;37.35;31.68;40.80;;
61816;Laerm;47745;49.010;8.380;2022-07-06T12:15:49;37.36;31.68;40.23;;
61816;Laerm;47745;49.010;8.380;2022-07-06T12:18:16;37.36;32.35;40.33;;
61816;Laerm;47745;49.010;8.380;2022-07-06T12:20:42;37.38;32.35;40.13;;
61816;Laerm;47745;49.010;8.380;2022-07-06T12:23:08;37.34;32.35;40.03;;
61816;Laerm;47745;49.010;8.380;2022-07-06T12:25:35;37.37;32.93;40.13;;
61816;Laerm;47745;49.010;8.380;2022-07-06T12:28:01;37.42;31.68;40.13;;
61816;Laerm;47745;49.010;8.380;2022-07-06T12:30:27;37.41;32.35;40.33;;
61816;Laerm;47745;49.010;8.380;2022-07-06T12:35:37;37.36;32.35;40.23;;
61816;Laerm;47745;49.010;8.380;2022-07-06T12:38:03;37.35;32.93;40.23;;
61816;Laerm;47745;49.010;8.380;2022-07-06T12:40:29;37.39;32.93;40.43;;
61816;Laerm;47745;49.010;8.380;2022-07-06T12:42:55;37.39;32.93;40.03;;
61816;Laerm;47745;49.010;8.380;2022-07-06T12:45:26;37.31;31.68;40.33;;
61816;Laerm;47745;49.010;8.380;2022-07-06T12:50:33;37.37;31.68;40.43;;
61816;Laerm;47745;49.010;8.380;2022-07-06T12:53:00;37.39;32.35;40.03;;
61816;Laerm;47745;49.010;8.380;2022-07-06T12:55:27;37.40;31.68;40.23;;
61816;Laerm;47745;49.010;8.380;2022-07-06T12:57:53;37.35;30.89;40.27;;
61816;Laerm;47745;49.010;8.380;2022-07-06T13:00:20;37.37;32.35;40.33;;
61816;Laerm;47745;49.010;8.380;2022-07-06T13:02:48;37.33;32.35;40.33;;
61816;Laerm;47745;49.010;8.380;2022-07-06T13:05:15;37.32;30.89;40.23;;
61816;Laerm;47745;49.010;8.380;2022-07-06T13:07:45;37.30;32.35;40.13;;
61816;Laerm;47745;49.010;8.380;2022-07-06T13:10:12;37.25;31.68;40.62;;
61816;Laerm;47745;49.010;8.380;2022-07-06T13:12:38;37.28;32.35;40.23;;
61816;Laerm;47745;49.010;8.380;2022-07-06T13:15:04;37.26;32.35;40.62;;
61816;Laerm;47745;49.010;8.380;2022-07-06T13:17:31;37.28;30.89;40.23;;
61816;Laerm;47745;49.010;8.380;2022-07-06T13:19:57;37.32;32.35;40.23;;
61816;Laerm;47745;49.010;8.380;2022-07-06T13:22:22;37.35;32.93;40.43;;
61816;Laerm;47745;49.010;8.380;2022-07-06T13:24:48;37.39;31.68;40.03;;
61816;Laerm;47745;49.010;8.380;2022-07-06T13:27:14;37.34;32.35;40.43;;
61816;Laerm;47745;49.010;8.380;2022-07-06T13:29:40;37.32;30.89;40.23;;
61816;Laerm;47745;49.010;8.380;2022-07-06T13:32:06;37.40;32.93;40.62;;
61816;Laerm;47745;49.010;8.380;2022-07-06T13:34:32;37.31;32.35;40.23;;
61816;Laerm;47745;49.010;8.380;2022-07-06T13:36:58;37.22;30.89;40.03;;
61816;Laerm;47745;49.010;8.380;2022-07-06T13:39:24;37.30;30.89;40.43;;
61816;Laerm;47745;49.010;8.380;2022-07-06T13:41:55;37.32;32.35;40.62;;
61816;Laerm;47745;49.010;8.380;2022-07-06T13:44:21;37.36;32.93;40.03;;
61816;Laerm;47745;49.010;8.380;2022-07-06T13:46:47;37.26;31.68;40.03;;
61816;Laerm;47745;49.010;8.380;2022-07-06T13:49:13;37.26;32.35;39.99;;
61816;Laerm;47745;49.010;8.380;2022-07-06T13:51:39;37.28;31.68;40.43;;
61816;Laerm;47745;49.010;8.380;2022-07-06T13:54:05;37.23;30.89;40.03;;
61816;Laerm;47745;49.010;8.380;2022-07-06T13:56:31;37.24;32.35;40.03;;
61816;Laerm;47745;49.010;8.380;2022-07-06T13:58:57;37.13;29.92;39.92;;